Time;durP1;ratioP1;P1;durP2;ratioP2;P2;SDS_P1;SDS_P2;PMS_P1;PMS_P2;Temp;Humidity;BMP_temperature;BMP_pressure;BME280_temperature;BME280_humidity;BME280_pressure;Samples;Min_cycle;Max_cycle;Signal;HPM_P1;HPM_P2
2023/09/05 00:00:13;;;;;;;8.48;3.53;;;15.10;91.00;;;;;;5061987;28;20025;-74
2023/09/05 00:02:42;;;;;;;6.43;3.30;;;15.10;90.90;;;;;;5063242;28;20025;-72
2023/09/05 00:05:09;;;;;;;6.38;3.40;;;15.00;91.10;;;;;;5068289;28;20044;-72
2023/09/05 00:07:35;;;;;;;4.97;2.88;;;15.00;91.30;;;;;;5065271;28;20040;-72
2023/09/05 00:10:19;;;;;;;6.72;3.72;;;14.90;91.20;;;;;;5063611;28;20047;-73
2023/09/05 00:12:46;;;;;;;6.03;2.97;;;14.80;91.40;;;;;;5062358;28;20021;-72
2023/09/05 00:15:13;;;;;;;5.28;3.10;;;14.70;91.40;;;;;;5065117;28;20056;-72
2023/09/05 00:17:40;;;;;;;6.88;2.92;;;14.70;91.80;;;;;;5059120;28;20104;-72
2023/09/05 00:20:06;;;;;;;8.07;3.15;;;14.60;92.30;;;;;;5066211;28;20103;-73
2023/09/05 00:22:33;;;;;;;11.27;3.22;;;14.60;92.60;;;;;;5069726;28;20437;-73
2023/09/05 00:24:58;;;;;;;6.95;3.40;;;14.50;92.50;;;;;;5066243;28;20081;-72
2023/09/05 00:27:27;;;;;;;6.28;3.28;;;14.50;92.80;;;;;;5066819;28;20807;-72
2023/09/05 00:29:52;;;;;;;6.10;3.63;;;14.30;92.40;;;;;;5067308;28;20107;-72
2023/09/05 00:32:20;;;;;;;8.75;3.75;;;14.30;92.90;;;;;;5056472;28;20476;-72
2023/09/05 00:34:47;;;;;;;7.05;3.72;;;14.20;92.70;;;;;;5061930;28;20028;-72
2023/09/05 00:37:19;;;;;;;5.80;3.15;;;14.10;93.10;;;;;;5063180;28;20021;-73
2023/09/05 00:39:45;;;;;;;6.43;3.92;;;14.10;93.50;;;;;;5063309;28;20354;-72
2023/09/05 00:42:12;;;;;;;7.47;3.75;;;14.00;93.00;;;;;;5060558;28;20017;-72
2023/09/05 00:44:37;;;;;;;5.70;3.47;;;14.00;93.20;;;;;;5066450;28;20040;-72
2023/09/05 00:47:04;;;;;;;5.13;3.30;;;14.00;93.50;;;;;;5066464;28;20039;-72
2023/09/05 00:49:39;;;;;;;9.90;3.58;;;14.00;94.00;;;;;;5065573;28;20043;-72
2023/09/05 00:52:06;;;;;;;5.55;3.65;;;13.90;94.20;;;;;;5063605;28;20028;-72
2023/09/05 00:54:33;;;;;;;8.32;3.92;;;13.90;93.90;;;;;;5068831;28;20028;-72
2023/09/05 00:56:59;;;;;;;8.57;4.32;;;13.80;93.70;;;;;;5066078;28;20020;-72
2023/09/05 00:59:25;;;;;;;6.32;4.10;;;13.70;94.00;;;;;;5067596;28;20060;-72
2023/09/05 01:01:51;;;;;;;6.55;4.35;;;13.70;94.00;;;;;;5065133;28;20540;-72
2023/09/05 01:04:17;;;;;;;7.07;4.00;;;13.70;94.30;;;;;;5061315;28;20103;-72
2023/09/05 01:07:01;;;;;;;7.05;4.35;;;13.60;94.00;;;;;;5068731;28;20082;-72
2023/09/05 01:09:55;;;;;;;7.15;4.20;;;13.60;94.10;;;;;;5069663;28;20025;-72
2023/09/05 01:12:21;;;;;;;6.07;3.97;;;13.50;94.20;;;;;;5060334;28;20110;-73
2023/09/05 01:14:46;;;;;;;9.93;4.40;;;13.50;94.40;;;;;;5062245;28;20025;-72
2023/09/05 01:17:12;;;;;;;8.75;4.13;;;13.50;94.40;;;;;;5062470;28;20035;-72
2023/09/05 01:19:39;;;;;;;9.98;4.80;;;13.50;94.50;;;;;;5065615;28;20536;-72
2023/09/05 01:22:17;;;;;;;6.22;4.38;;;13.50;94.80;;;;;;5069134;28;20384;-72
2023/09/05 01:24:43;;;;;;;8.40;4.70;;;13.70;95.00;;;;;;5071180;28;20037;-71
2023/09/05 01:27:10;;;;;;;5.63;4.20;;;13.80;94.70;;;;;;5068682;28;20469;-72
2023/09/05 01:29:38;;;;;;;8.13;4.75;;;13.80;94.70;;;;;;5069561;28;20389;-72
2023/09/05 01:32:04;;;;;;;6.80;5.03;;;13.90;94.60;;;;;;5065177;28;20036;-71
2023/09/05 01:34:30;;;;;;;9.20;5.18;;;14.00;94.60;;;;;;5072383;28;20016;-72
2023/09/05 01:36:56;;;;;;;8.10;5.07;;;13.90;94.50;;;;;;5065987;28;20108;-72
2023/09/05 01:39:22;;;;;;;6.40;4.45;;;13.90;94.20;;;;;;5071718;28;20074;-71
2023/09/05 01:41:48;;;;;;;5.82;4.00;;;13.80;94.20;;;;;;5065578;28;20036;-73
2023/09/05 01:44:15;;;;;;;9.02;4.47;;;13.90;94.40;;;;;;5063497;28;20085;-72
2023/09/05 01:46:40;;;;;;;9.35;4.47;;;13.90;94.40;;;;;;5063915;28;20056;-72
2023/09/05 01:49:05;;;;;;;10.15;4.80;;;14.00;94.30;;;;;;5067084;28;20363;-73
2023/09/05 01:51:31;;;;;;;8.88;4.95;;;14.00;94.00;;;;;;5068768;28;20040;-72
2023/09/05 01:53:57;;;;;;;5.95;4.10;;;14.10;94.10;;;;;;5067080;28;20039;-72
2023/09/05 01:56:22;;;;;;;6.45;4.10;;;14.10;94.00;;;;;;5068421;28;20384;-72
2023/09/05 01:58:48;;;;;;;6.30;4.03;;;14.10;93.80;;;;;;5065836;28;20024;-73
2023/09/05 02:01:13;;;;;;;7.25;4.60;;;14.10;93.80;;;;;;5071434;28;20468;-72
2023/09/05 02:03:39;;;;;;;8.02;4.50;;;14.10;94.10;;;;;;5065792;28;20082;-72
2023/09/05 02:06:04;;;;;;;8.60;4.05;;;14.10;93.80;;;;;;5070151;28;20480;-73
2023/09/05 02:08:30;;;;;;;9.10;3.90;;;14.00;93.70;;;;;;5066852;28;20025;-71
2023/09/05 02:10:55;;;;;;;10.27;4.35;;;13.90;93.70;;;;;;5070969;28;20043;-73
2023/09/05 02:13:21;;;;;;;6.05;3.60;;;13.80;93.60;;;;;;5064889;28;20036;-71
2023/09/05 02:18:22;;;;;;;6.93;3.75;;;13.60;94.00;;;;;;5156686;22;20065;-72
2023/09/05 02:20:47;;;;;;;6.05;3.75;;;13.50;94.30;;;;;;5031858;28;20025;-72
2023/09/05 02:23:13;;;;;;;7.60;3.60;;;13.50;94.50;;;;;;5026198;28;20041;-72
2023/09/05 02:25:39;;;;;;;5.47;3.83;;;13.40;94.60;;;;;;5036553;28;20033;-71
2023/09/05 02:28:04;;;;;;;5.72;3.65;;;13.30;94.90;;;;;;5028313;28;20068;-73
2023/09/05 02:30:30;;;;;;;6.85;3.95;;;13.30;94.70;;;;;;5024808;28;20045;-71
2023/09/05 02:32:56;;;;;;;7.97;3.88;;;13.20;94.70;;;;;;5024098;28;20037;-71
2023/09/05 02:35:27;;;;;;;10.10;4.78;;;13.20;95.10;;;;;;5028409;28;20032;-72
2023/09/05 02:37:53;;;;;;;7.57;4.67;;;13.20;95.00;;;;;;5031498;28;20389;-71
2023/09/05 02:40:19;;;;;;;7.47;4.95;;;13.20;95.30;;;;;;5014048;28;20119;-71
2023/09/05 02:42:45;;;;;;;8.38;4.82;;;13.20;95.40;;;;;;5007319;28;20424;-73
2023/09/05 02:45:12;;;;;;;8.15;5.30;;;13.30;95.60;;;;;;5029569;28;20087;-72
2023/09/05 02:47:38;;;;;;;10.48;5.07;;;13.30;95.80;;;;;;5028367;28;20033;-72
2023/09/05 02:50:03;;;;;;;6.65;4.90;;;13.40;95.80;;;;;;5028420;28;20068;-71
2023/09/05 02:52:30;;;;;;;6.05;4.47;;;13.50;95.80;;;;;;5039397;28;20525;-72
2023/09/05 02:54:55;;;;;;;7.05;5.22;;;13.50;95.70;;;;;;5026432;28;20087;-71
2023/09/05 02:57:21;;;;;;;6.72;4.90;;;13.50;95.70;;;;;;5027116;28;20022;-73
2023/09/05 02:59:50;;;;;;;6.75;4.95;;;13.50;95.50;;;;;;5024558;28;20044;-71
2023/09/05 03:02:16;;;;;;;7.25;4.55;;;13.60;95.40;;;;;;5030821;28;20026;-72
2023/09/05 03:04:41;;;;;;;7.05;4.60;;;13.60;95.30;;;;;;5019378;28;20037;-71
2023/09/05 03:07:07;;;;;;;6.38;4.75;;;13.50;95.20;;;;;;5030105;28;20041;-72
2023/09/05 03:09:33;;;;;;;7.97;4.47;;;13.40;95.60;;;;;;5031419;28;20033;-71
2023/09/05 03:11:58;;;;;;;6.35;4.25;;;13.30;95.70;;;;;;5029743;28;20474;-74
2023/09/05 03:14:25;;;;;;;6.95;4.18;;;13.30;95.50;;;;;;5026006;28;20088;-71
2023/09/05 03:16:51;;;;;;;7.97;4.32;;;13.20;95.60;;;;;;5019982;28;20046;-71
2023/09/05 03:19:16;;;;;;;6.32;4.30;;;13.10;95.50;;;;;;5020844;28;20673;-73
2023/09/05 03:21:41;;;;;;;5.25;3.80;;;13.10;95.70;;;;;;5031369;28;20546;-71
2023/09/05 03:24:07;;;;;;;8.88;4.38;;;13.00;95.60;;;;;;5024149;28;20037;-71
2023/09/05 03:26:32;;;;;;;6.57;4.47;;;13.00;95.70;;;;;;5030246;28;20458;-71
2023/09/05 03:28:59;;;;;;;7.43;4.68;;;13.00;95.80;;;;;;5021152;28;20037;-71
2023/09/05 03:31:28;;;;;;;9.85;5.78;;;13.00;96.20;;;;;;5025462;28;20498;-71
2023/09/05 03:33:54;;;;;;;7.95;4.88;;;13.10;96.10;;;;;;5026550;28;20255;-72
2023/09/05 03:36:19;;;;;;;10.88;5.13;;;13.20;96.20;;;;;;5024106;28;20029;-71
2023/09/05 03:38:45;;;;;;;8.77;5.80;;;13.20;95.80;;;;;;5028687;28;20036;-72
2023/09/05 03:41:10;;;;;;;8.18;5.90;;;13.20;95.90;;;;;;5030511;28;20084;-73
2023/09/05 03:43:36;;;;;;;8.35;6.13;;;13.40;95.90;;;;;;5023973;28;20145;-72
2023/09/05 03:46:01;;;;;;;8.45;5.50;;;13.40;95.80;;;;;;5025874;28;20084;-72
2023/09/05 03:48:27;;;;;;;9.65;5.72;;;13.50;95.80;;;;;;5029257;28;20041;-71
2023/09/05 03:50:52;;;;;;;8.25;5.32;;;13.60;95.50;;;;;;5027703;28;20041;-71
2023/09/05 03:53:18;;;;;;;9.30;5.68;;;13.60;95.40;;;;;;5030251;28;20065;-71
2023/09/05 03:55:45;;;;;;;9.60;5.35;;;13.70;95.30;;;;;;5009106;28;20064;-71
2023/09/05 03:58:11;;;;;;;8.13;5.05;;;13.70;95.20;;;;;;5026534;28;20541;-71
2023/09/05 04:00:36;;;;;;;8.07;5.40;;;13.70;95.30;;;;;;5021258;28;20047;-73
2023/09/05 04:03:02;;;;;;;8.70;4.82;;;13.80;95.10;;;;;;5019530;28;20040;-72
2023/09/05 04:05:28;;;;;;;6.18;4.85;;;13.70;95.00;;;;;;5024805;28;20067;-71
2023/09/05 04:07:54;;;;;;;8.30;4.80;;;13.70;95.00;;;;;;5028914;28;20061;-72
2023/09/05 04:10:20;;;;;;;7.63;4.85;;;13.70;94.90;;;;;;5023422;28;20673;-71
2023/09/05 04:12:45;;;;;;;6.57;4.70;;;13.70;95.10;;;;;;5019415;28;20032;-72
2023/09/05 04:15:11;;;;;;;7.40;4.80;;;13.70;94.90;;;;;;5024908;28;20025;-72
2023/09/05 04:17:37;;;;;;;6.72;4.80;;;13.70;95.00;;;;;;5037088;28;20551;-72
2023/09/05 04:20:06;;;;;;;9.60;4.50;;;13.80;95.10;;;;;;5023604;28;20033;-71
2023/09/05 04:22:32;;;;;;;10.73;4.97;;;13.80;94.80;;;;;;5031836;28;20060;-71
2023/09/05 04:24:57;;;;;;;7.60;4.88;;;13.80;94.70;;;;;;5030784;28;20037;-71
2023/09/05 04:27:23;;;;;;;5.50;4.20;;;13.80;94.90;;;;;;5025702;28;20080;-67
2023/09/05 04:29:54;;;;;;;8.10;4.60;;;13.70;94.90;;;;;;5031321;28;20026;-68
2023/09/05 04:32:26;;;;;;;7.53;4.28;;;13.80;95.00;;;;;;5024807;28;20057;-68
2023/09/05 04:34:54;;;;;;;6.25;4.50;;;13.80;94.60;;;;;;5021715;28;20044;-68
2023/09/05 04:37:19;;;;;;;5.82;4.13;;;13.70;94.70;;;;;;5020783;28;20413;-68
2023/09/05 04:39:45;;;;;;;8.35;5.00;;;13.80;94.90;;;;;;5023549;28;20028;-71
2023/09/05 04:42:10;;;;;;;6.82;4.55;;;13.80;94.90;;;;;;5022702;28;20042;-68
2023/09/05 04:44:36;;;;;;;8.77;4.88;;;13.80;94.80;;;;;;5022573;28;20692;-69
2023/09/05 04:47:18;;;;;;;7.18;4.82;;;13.80;94.70;;;;;;5025036;28;20057;-69
2023/09/05 04:49:44;;;;;;;7.43;4.53;;;13.90;94.80;;;;;;5027560;28;20681;-72
2023/09/05 04:52:11;;;;;;;7.45;4.80;;;13.80;94.70;;;;;;5024971;28;20120;-70
2023/09/05 04:54:37;;;;;;;6.35;4.28;;;13.80;94.60;;;;;;5027581;28;20040;-72
2023/09/05 04:57:03;;;;;;;7.78;4.47;;;13.80;94.80;;;;;;5026230;28;20386;-69
2023/09/05 04:59:28;;;;;;;7.95;4.90;;;13.90;94.90;;;;;;5029368;28;20057;-70
2023/09/05 05:01:54;;;;;;;10.73;4.53;;;13.80;94.80;;;;;;5029874;28;20379;-70
2023/09/05 05:04:20;;;;;;;9.60;4.45;;;13.80;94.90;;;;;;5030492;28;20112;-70
2023/09/05 05:06:46;;;;;;;8.07;4.85;;;13.80;94.80;;;;;;5030829;28;20033;-70
2023/09/05 05:09:11;;;;;;;6.68;4.18;;;13.80;94.80;;;;;;5035501;28;20037;-70
2023/09/05 05:11:36;;;;;;;6.97;4.32;;;13.80;94.90;;;;;;5032375;28;20091;-70
2023/09/05 05:14:02;;;;;;;7.93;4.30;;;13.80;94.90;;;;;;5027548;28;20068;-69
2023/09/05 05:16:27;;;;;;;5.07;3.63;;;13.80;94.90;;;;;;5036313;28;20484;-70
2023/09/05 05:18:53;;;;;;;8.60;4.07;;;13.90;95.00;;;;;;5027059;28;20375;-70
2023/09/05 05:21:18;;;;;;;7.30;4.38;;;13.90;95.10;;;;;;5030685;28;20045;-69
2023/09/05 05:23:44;;;;;;;7.28;4.47;;;13.90;94.80;;;;;;5035019;28;20049;-69
2023/09/05 05:26:09;;;;;;;6.25;4.50;;;14.00;94.70;;;;;;5026558;28;20492;-70
2023/09/05 05:28:35;;;;;;;6.70;4.22;;;14.00;94.80;;;;;;5030245;28;20032;-71
2023/09/05 05:31:00;;;;;;;8.63;5.32;;;14.00;94.60;;;;;;5027130;28;20390;-69
2023/09/05 05:33:26;;;;;;;7.15;4.25;;;14.20;94.50;;;;;;5024962;28;20118;-69
2023/09/05 05:35:53;;;;;;;5.75;4.13;;;14.20;94.30;;;;;;5028742;28;20041;-70
2023/09/05 05:38:19;;;;;;;5.35;4.18;;;14.30;94.10;;;;;;5031348;28;20374;-70
2023/09/05 05:40:44;;;;;;;7.60;4.60;;;14.30;94.20;;;;;;5030496;28;20037;-70
2023/09/05 05:43:10;;;;;;;7.93;4.47;;;14.40;93.90;;;;;;5029995;28;20116;-69
2023/09/05 05:45:35;;;;;;;8.68;4.30;;;14.50;93.90;;;;;;5023976;28;20026;-69
2023/09/05 05:48:01;;;;;;;11.63;4.57;;;14.60;93.80;;;;;;5027812;28;20024;-69
2023/09/05 05:50:26;;;;;;;5.53;4.13;;;14.70;93.40;;;;;;5030199;28;20555;-69
2023/09/05 05:52:52;;;;;;;6.53;4.20;;;14.70;93.30;;;;;;5032163;28;20068;-69
2023/09/05 05:55:17;;;;;;;6.95;4.13;;;14.90;93.20;;;;;;5032633;28;20101;-69
2023/09/05 05:57:43;;;;;;;7.95;4.53;;;14.90;92.90;;;;;;5028851;28;20555;-70
2023/09/05 06:00:08;;;;;;;6.32;4.55;;;15.00;92.50;;;;;;5029773;28;20037;-69
2023/09/05 06:02:34;;;;;;;8.15;4.32;;;15.10;92.20;;;;;;5029527;28;20022;-70
2023/09/05 06:04:59;;;;;;;6.72;3.90;;;15.20;92.00;;;;;;5029634;28;20116;-69
2023/09/05 06:07:25;;;;;;;8.77;4.07;;;15.30;91.70;;;;;;5033589;28;20132;-69
2023/09/05 06:09:50;;;;;;;6.38;4.18;;;15.40;91.50;;;;;;5027493;28;20735;-69
2023/09/05 06:12:16;;;;;;;6.50;4.38;;;15.50;91.30;;;;;;5033101;28;20074;-70
2023/09/05 06:14:42;;;;;;;5.88;3.85;;;15.60;90.80;;;;;;5030114;28;20433;-69
2023/09/05 06:17:07;;;;;;;8.57;4.10;;;15.60;90.80;;;;;;5030638;28;20463;-69
2023/09/05 06:19:33;;;;;;;7.72;3.85;;;15.70;90.60;;;;;;5036864;28;20138;-68
2023/09/05 06:21:58;;;;;;;5.32;3.30;;;15.80;90.40;;;;;;5035387;28;20452;-69
2023/09/05 06:24:24;;;;;;;7.72;3.80;;;15.90;90.50;;;;;;5033187;28;20033;-69
2023/09/05 06:26:50;;;;;;;7.45;3.65;;;16.00;90.50;;;;;;5034786;28;20483;-69
2023/09/05 06:29:15;;;;;;;5.55;3.13;;;16.00;90.10;;;;;;5014375;28;20276;-69
2023/09/05 06:31:41;;;;;;;7.47;3.70;;;16.10;89.90;;;;;;5017681;28;20041;-69
2023/09/05 06:34:07;;;;;;;7.40;3.60;;;16.20;89.40;;;;;;5034780;28;20037;-71
2023/09/05 06:36:32;;;;;;;9.40;3.53;;;16.30;89.40;;;;;;5029404;28;20037;-69
2023/09/05 06:38:58;;;;;;;5.20;3.15;;;16.40;89.30;;;;;;5030936;28;20462;-69
2023/09/05 06:41:23;;;;;;;5.65;3.20;;;16.50;89.10;;;;;;5031348;28;20037;-69
2023/09/05 06:43:50;;;;;;;6.10;3.40;;;16.70;88.30;;;;;;5027737;28;20458;-69
2023/09/05 06:46:15;;;;;;;8.15;3.08;;;16.80;88.30;;;;;;5022545;28;20034;-69
2023/09/05 06:48:41;;;;;;;7.72;3.47;;;16.80;88.30;;;;;;5016808;28;20428;-69
2023/09/05 06:51:06;;;;;;;5.85;3.30;;;17.00;87.70;;;;;;5030584;28;20048;-70
2023/09/05 06:53:33;;;;;;;7.53;3.38;;;17.10;87.30;;;;;;5030557;28;20037;-70
2023/09/05 06:55:59;;;;;;;5.65;3.05;;;17.20;86.50;;;;;;5028107;28;20072;-69
2023/09/05 06:58:26;;;;;;;4.13;2.72;;;17.40;86.40;;;;;;5029190;28;20061;-69
2023/09/05 07:00:55;;;;;;;4.57;2.40;;;17.50;86.00;;;;;;5029877;28;20488;-69
2023/09/05 07:03:22;;;;;;;4.63;2.85;;;17.60;86.20;;;;;;5025501;28;20036;-69
2023/09/05 07:05:48;;;;;;;5.78;2.70;;;17.70;85.80;;;;;;5030128;28;20025;-69
2023/09/05 07:08:13;;;;;;;4.30;2.40;;;17.90;85.60;;;;;;5032978;28;20029;-69
2023/09/05 07:10:39;;;;;;;5.05;2.28;;;18.00;84.90;;;;;;5030070;28;20374;-68
2023/09/05 07:13:04;;;;;;;4.90;2.33;;;18.00;85.00;;;;;;5031851;28;20461;-69
2023/09/05 07:15:30;;;;;;;5.20;3.00;;;18.10;85.20;;;;;;5030494;28;20059;-70
2023/09/05 07:17:55;;;;;;;5.13;2.47;;;18.20;84.90;;;;;;5023936;28;20052;-69
2023/09/05 07:20:21;;;;;;;5.28;2.40;;;18.20;84.80;;;;;;5031541;28;20030;-69
2023/09/05 07:22:46;;;;;;;5.88;2.53;;;18.30;85.00;;;;;;5030149;28;20033;-69
2023/09/05 07:25:12;;;;;;;4.45;2.28;;;18.40;84.80;;;;;;5026100;28;20517;-69
2023/09/05 07:27:37;;;;;;;4.78;2.50;;;18.40;85.30;;;;;;5031705;28;20022;-69
2023/09/05 07:30:03;;;;;;;4.07;2.10;;;18.50;85.10;;;;;;5029484;28;20042;-69
2023/09/05 07:32:29;;;;;;;6.88;2.53;;;18.60;84.70;;;;;;5027785;28;20060;-70
2023/09/05 07:34:55;;;;;;;8.63;2.42;;;18.70;84.50;;;;;;5029975;28;20037;-69
2023/09/05 07:37:20;;;;;;;5.18;2.10;;;18.80;84.80;;;;;;5030486;28;20037;-70
2023/09/05 07:39:49;;;;;;;6.07;2.17;;;19.00;83.80;;;;;;5028407;28;20056;-69
2023/09/05 07:42:15;;;;;;;3.33;1.98;;;19.00;84.40;;;;;;5028402;28;20026;-69
2023/09/05 07:44:40;;;;;;;5.65;2.70;;;19.10;84.30;;;;;;5028548;28;20462;-69
2023/09/05 07:47:06;;;;;;;3.60;1.95;;;19.20;84.00;;;;;;5025467;28;20073;-69
2023/09/05 07:49:39;;;;;;;5.00;2.30;;;19.40;82.90;;;;;;5029043;28;20034;-69
2023/09/05 07:52:05;;;;;;;3.95;2.40;;;19.50;83.70;;;;;;5030399;28;20041;-69
2023/09/05 07:54:30;;;;;;;4.43;2.15;;;19.50;83.50;;;;;;5029848;28;20104;-69
2023/09/05 07:56:56;;;;;;;7.93;2.58;;;19.70;82.30;;;;;;5031361;28;20558;-69
2023/09/05 07:59:23;;;;;;;3.25;2.00;;;20.00;82.10;;;;;;5031135;28;20032;-69
2023/09/05 08:01:48;;;;;;;6.05;1.92;;;20.20;81.60;;;;;;5027278;28;20026;-70
2023/09/05 08:04:14;;;;;;;4.22;2.00;;;20.50;80.80;;;;;;5026356;28;20084;-69
2023/09/05 08:06:39;;;;;;;4.50;1.92;;;20.70;79.70;;;;;;5029829;28;20144;-70
2023/09/05 08:09:05;;;;;;;3.53;1.83;;;20.70;78.70;;;;;;5029511;28;20034;-70
2023/09/05 08:11:30;;;;;;;4.55;1.85;;;20.90;78.50;;;;;;5028902;28;20049;-69
2023/09/05 08:13:56;;;;;;;3.65;1.80;;;20.90;78.30;;;;;;5033471;28;20048;-70
2023/09/05 08:16:21;;;;;;;4.18;2.08;;;21.00;79.00;;;;;;5028400;28;20108;-70
2023/09/05 08:18:47;;;;;;;8.27;1.98;;;21.10;78.00;;;;;;5027849;28;20520;-71
2023/09/05 08:21:12;;;;;;;7.05;2.10;;;21.30;78.40;;;;;;5034200;28;20087;-69
2023/09/05 08:23:37;;;;;;;3.53;1.98;;;21.50;76.60;;;;;;5031141;28;20030;-70
2023/09/05 08:26:04;;;;;;;4.78;1.88;;;21.70;75.50;;;;;;5027567;28;20045;-70
2023/09/05 08:28:32;;;;;;;2.47;1.52;;;21.80;75.30;;;;;;5028029;28;20071;-69
2023/09/05 08:30:59;;;;;;;3.88;1.85;;;22.00;77.50;;;;;;5025846;28;20559;-70
2023/09/05 08:33:25;;;;;;;3.60;1.85;;;22.20;75.50;;;;;;5032144;28;20036;-70
2023/09/05 08:35:52;;;;;;;3.47;1.83;;;22.30;73.40;;;;;;5033642;28;20076;-70
2023/09/05 08:38:17;;;;;;;3.80;1.90;;;22.50;73.00;;;;;;5037669;28;20037;-72
2023/09/05 08:40:45;;;;;;;5.35;2.08;;;22.50;72.20;;;;;;5035174;28;20237;-69
2023/09/05 08:43:11;;;;;;;2.75;1.60;;;22.60;73.30;;;;;;5035399;28;20064;-69
2023/09/05 08:45:39;;;;;;;3.85;2.00;;;22.80;72.40;;;;;;5033770;28;20447;-70
2023/09/05 08:48:05;;;;;;;3.15;1.90;;;23.00;73.40;;;;;;5030699;28;20042;-71
2023/09/05 08:50:32;;;;;;;2.45;1.60;;;23.20;71.90;;;;;;5034733;28;20049;-70
2023/09/05 08:53:02;;;;;;;3.80;1.77;;;23.40;72.20;;;;;;5037758;28;20386;-70
2023/09/05 08:55:29;;;;;;;4.22;1.70;;;23.40;71.60;;;;;;5029003;28;20033;-70
2023/09/05 08:57:55;;;;;;;4.53;1.70;;;23.60;70.60;;;;;;5036174;28;20466;-71
2023/09/05 09:00:21;;;;;;;3.35;1.70;;;23.80;70.30;;;;;;5034891;28;20416;-71
2023/09/05 09:02:47;;;;;;;5.47;1.50;;;23.90;69.00;;;;;;5033216;28;20119;-71
2023/09/05 09:05:13;;;;;;;2.85;1.48;;;24.00;69.80;;;;;;5035451;28;20040;-70
2023/09/05 09:07:39;;;;;;;4.45;1.92;;;24.30;69.10;;;;;;5036588;28;20025;-70
2023/09/05 09:10:20;;;;;;;4.70;1.80;;;24.40;67.80;;;;;;5035874;28;20041;-70
2023/09/05 09:12:47;;;;;;;;;;;24.60;68.20;;;;;;5032258;28;20026;-71
2023/09/05 09:15:14;;;;;;;2.72;1.50;;;24.80;68.50;;;;;;5029585;28;20015;-71
2023/09/05 09:17:47;;;;;;;7.15;1.60;;;24.90;66.20;;;;;;5032102;28;20144;-70
2023/09/05 09:20:13;;;;;;;4.25;1.65;;;24.90;66.50;;;;;;5032989;28;20136;-70
2023/09/05 09:22:40;;;;;;;4.82;1.67;;;24.70;67.10;;;;;;5040766;28;20041;-71
2023/09/05 09:25:20;;;;;;;4.75;2.10;;;24.60;66.70;;;;;;5033843;28;20389;-70
2023/09/05 09:27:50;;;;;;;8.15;1.50;;;24.60;68.20;;;;;;5039141;28;20079;-70
2023/09/05 09:30:20;;;;;;;3.78;1.70;;;24.40;65.60;;;;;;5033468;28;20059;-70
2023/09/05 09:32:51;;;;;;;5.43;1.45;;;24.70;66.80;;;;;;5031626;28;20049;-70
2023/09/05 09:35:17;;;;;;;4.00;1.63;;;24.90;66.60;;;;;;5035698;28;20557;-70
2023/09/05 09:37:45;;;;;;;3.75;1.48;;;25.10;64.60;;;;;;5037241;28;20057;-70
2023/09/05 09:40:11;;;;;;;3.08;1.70;;;25.30;65.10;;;;;;5034173;28;20033;-69
2023/09/05 09:42:37;;;;;;;2.95;1.40;;;25.40;63.30;;;;;;5023723;28;20064;-70
2023/09/05 09:45:08;;;;;;;3.58;1.38;;;25.60;62.20;;;;;;5035676;28;20040;-70
2023/09/05 09:47:34;;;;;;;1.80;1.27;;;25.90;63.60;;;;;;5025366;28;20405;-70
2023/09/05 09:50:02;;;;;;;3.40;1.50;;;26.00;61.20;;;;;;5042533;28;20029;-71
2023/09/05 09:52:34;;;;;;;2.70;1.50;;;26.10;61.70;;;;;;5025418;28;20425;-70
2023/09/05 09:55:02;;;;;;;4.82;1.60;;;26.20;61.30;;;;;;5029089;28;20037;-70
2023/09/05 09:57:38;;;;;;;2.05;1.17;;;26.40;61.50;;;;;;5036782;28;20493;-70
2023/09/05 10:00:09;;;;;;;3.42;1.38;;;26.50;61.10;;;;;;5025960;28;20029;-70
2023/09/05 10:02:36;;;;;;;1.20;0.98;;;26.50;59.70;;;;;;5024094;28;20028;-72
2023/09/05 10:05:02;;;;;;;3.13;1.30;;;26.50;62.00;;;;;;5031239;28;20033;-70
2023/09/05 10:07:29;;;;;;;2.10;1.40;;;26.70;59.70;;;;;;5034452;28;20608;-70
2023/09/05 10:09:56;;;;;;;2.83;1.27;;;26.70;60.40;;;;;;5027847;28;20041;-70
2023/09/05 10:12:23;;;;;;;5.80;1.30;;;26.70;59.10;;;;;;5032402;28;20025;-70
2023/09/05 10:14:51;;;;;;;3.13;1.30;;;26.80;58.60;;;;;;5026540;28;20041;-73
2023/09/05 10:17:19;;;;;;;2.50;1.20;;;26.80;59.80;;;;;;5020605;28;20037;-71
2023/09/05 10:19:46;;;;;;;6.38;1.48;;;27.00;58.50;;;;;;5029687;28;20575;-70
2023/09/05 10:22:16;;;;;;;3.40;1.63;;;27.10;59.50;;;;;;5031647;28;20159;-70
2023/09/05 10:24:43;;;;;;;3.22;1.35;;;27.00;57.30;;;;;;5031089;28;20105;-71
2023/09/05 10:27:09;;;;;;;3.05;1.13;;;27.30;58.80;;;;;;5042079;28;20032;-70
2023/09/05 10:29:43;;;;;;;2.22;1.23;;;27.40;57.70;;;;;;5029056;28;20045;-71
2023/09/05 10:32:10;;;;;;;1.83;1.30;;;27.50;59.10;;;;;;5028492;28;20141;-71
2023/09/05 10:34:47;;;;;;;3.42;1.13;;;27.60;57.30;;;;;;5030512;28;20493;-72
2023/09/05 10:37:15;;;;;;;3.13;1.40;;;27.70;57.40;;;;;;5031145;28;20037;-70
2023/09/05 10:39:55;;;;;;;4.43;1.10;;;27.90;56.50;;;;;;5028044;28;20163;-71
2023/09/05 10:42:31;;;;;;;2.78;1.30;;;28.00;56.60;;;;;;5025164;28;20506;-71
2023/09/05 10:45:00;;;;;;;2.30;1.30;;;28.10;56.30;;;;;;5030761;28;20112;-72
2023/09/05 10:47:33;;;;;;;1.75;0.95;;;28.00;54.90;;;;;;5025968;28;20038;-72
2023/09/05 10:49:59;;;;;;;1.65;1.10;;;27.80;55.30;;;;;;5027807;28;20030;-71
2023/09/05 10:52:29;;;;;;;3.60;1.10;;;28.00;54.80;;;;;;5031621;28;20033;-71
2023/09/05 10:54:56;;;;;;;2.88;1.10;;;28.30;54.10;;;;;;5031083;28;20061;-71
2023/09/05 10:57:36;;;;;;;3.72;1.02;;;28.20;52.70;;;;;;5030767;28;20040;-71
2023/09/05 11:00:14;;;;;;;2.83;1.00;;;28.40;54.20;;;;;;5028131;28;20022;-71
2023/09/05 11:02:40;;;;;;;2.15;1.02;;;28.70;54.80;;;;;;5020813;28;20052;-72
2023/09/05 11:05:13;;;;;;;1.70;0.90;;;28.90;54.70;;;;;;5030511;28;20080;-71
2023/09/05 11:07:42;;;;;;;1.38;0.90;;;29.00;52.70;;;;;;5030120;28;20409;-71
2023/09/05 11:10:24;;;;;;;1.27;0.70;;;29.30;51.90;;;;;;5026892;28;20029;-72
2023/09/05 11:12:50;;;;;;;2.20;1.02;;;29.40;52.20;;;;;;5031933;28;20041;-71
2023/09/05 11:15:32;;;;;;;4.10;0.95;;;29.00;51.60;;;;;;5024755;28;20088;-71
2023/09/05 11:18:05;;;;;;;0.93;0.80;;;29.20;51.10;;;;;;5022129;28;20111;-72
2023/09/05 11:20:40;;;;;;;2.60;0.90;;;29.50;50.50;;;;;;5028399;28;20043;-72
2023/09/05 11:23:17;;;;;;;1.85;0.95;;;29.20;50.20;;;;;;5031539;28;20037;-71
2023/09/05 11:25:44;;;;;;;6.82;1.50;;;29.60;49.70;;;;;;5030063;28;20469;-71
2023/09/05 11:28:11;;;;;;;3.30;0.90;;;29.90;50.80;;;;;;5036576;28;20033;-71
2023/09/05 11:30:37;;;;;;;1.80;1.10;;;30.00;50.30;;;;;;5024782;28;20048;-72
2023/09/05 11:33:07;;;;;;;2.40;0.90;;;30.20;48.80;;;;;;5024546;28;20455;-71
2023/09/05 11:35:35;;;;;;;1.25;0.82;;;29.90;49.50;;;;;;5031797;28;20413;-71
2023/09/05 11:38:03;;;;;;;2.50;0.70;;;30.10;48.10;;;;;;5043410;28;20053;-71
2023/09/05 11:40:30;;;;;;;2.90;0.90;;;30.00;47.50;;;;;;5027786;28;20037;-72
2023/09/05 11:43:06;;;;;;;1.60;1.00;;;30.00;48.70;;;;;;5023188;28;20032;-73
2023/09/05 11:45:34;;;;;;;1.50;0.90;;;30.30;49.30;;;;;;5019552;28;20482;-71
2023/09/05 11:48:01;;;;;;;2.20;0.95;;;30.50;48.10;;;;;;5027541;28;20445;-72
2023/09/05 11:50:28;;;;;;;1.92;0.85;;;30.70;47.20;;;;;;5026357;28;20045;-72
2023/09/05 11:52:54;;;;;;;1.00;0.88;;;31.00;47.30;;;;;;5030215;28;20033;-72
2023/09/05 11:55:25;;;;;;;2.10;0.85;;;31.20;48.80;;;;;;5029018;28;20104;-72
2023/09/05 11:57:54;;;;;;;1.65;0.93;;;31.70;47.30;;;;;;5036149;28;20106;-72
2023/09/05 12:00:22;;;;;;;2.00;0.80;;;31.40;46.20;;;;;;5020909;28;20036;-72
2023/09/05 12:02:48;;;;;;;0.77;0.70;;;31.30;46.20;;;;;;5020174;28;20041;-72
2023/09/05 12:05:16;;;;;;;2.65;0.80;;;31.20;47.50;;;;;;5020250;28;20091;-72
2023/09/05 12:07:48;;;;;;;1.77;0.90;;;31.50;45.30;;;;;;5031170;28;20409;-71
2023/09/05 12:10:13;;;;;;;1.58;0.90;;;32.40;46.60;;;;;;5030024;28;20116;-69
2023/09/05 12:12:49;;;;;;;3.78;0.90;;;32.10;45.60;;;;;;5031718;28;20124;-69
2023/09/05 12:15:16;;;;;;;1.88;1.10;;;32.40;45.70;;;;;;5020206;28;20041;-69
2023/09/05 12:17:45;;;;;;;1.80;0.80;;;32.40;43.50;;;;;;5017691;28;20088;-70
2023/09/05 12:20:11;;;;;;;1.73;0.90;;;32.60;45.40;;;;;;5020463;28;20114;-67
2023/09/05 12:22:36;;;;;;;1.63;0.88;;;32.20;43.90;;;;;;5022115;28;20084;-70
2023/09/05 12:25:06;;;;;;;2.13;0.80;;;32.70;46.50;;;;;;5027693;28;20470;-69
2023/09/05 12:27:32;;;;;;;;;;;32.30;45.00;;;;;;5040624;28;20033;-69
2023/09/05 12:29:57;;;;;;;4.13;0.90;;;33.00;43.20;;;;;;5026079;28;20389;-69
2023/09/05 12:32:26;;;;;;;1.38;0.80;;;33.40;43.40;;;;;;5023890;28;20560;-69
2023/09/05 12:34:55;;;;;;;2.23;0.80;;;33.30;44.90;;;;;;5029780;28;20466;-69
2023/09/05 12:37:22;;;;;;;3.78;1.00;;;32.70;43.80;;;;;;5029391;28;20083;-69
2023/09/05 12:39:48;;;;;;;0.95;0.70;;;32.50;43.20;;;;;;5022865;28;20034;-71
2023/09/05 12:42:13;;;;;;;2.30;1.00;;;33.10;42.80;;;;;;5020987;28;20127;-69
2023/09/05 12:44:39;;;;;;;2.75;0.80;;;32.30;44.00;;;;;;5026785;28;20061;-69
2023/09/05 12:47:04;;;;;;;2.38;0.95;;;32.80;44.40;;;;;;5029899;28;20041;-69
2023/09/05 12:49:33;;;;;;;1.40;0.80;;;33.20;43.40;;;;;;5028567;28;20027;-71